Portada
METAR-TAF:

METAR-TAF

Aeropuertos :

Wainwright, Alaska, Estados Unidos

latitud: 64-50N, longitud: 147-37W, altitud: 137 m

Observación

El informe se hizo hace 53 minutos, a las 05:55 UTC
Viento 3 kt del noreste
Temperatura 13°C
Humedad 88%
Presión 1012 hPa
Visibilidad: 11.3 km
Nubes dispersas a una altura de 5000 ft
Cielo nuboso a una altura de 6000 ft
Cielo nuboso a una altura de 9000 ft
lluvia ligera

METAR: PAFB 300555Z 05003KT 7SM -RA SCT050 BKN060 BKN090 13/11 A2988 RMK AO2A SLP124 P0002 60003 T01290108 10213 20127 51018

Hora: 22:48 (06:48 UTC)

Pronóstico

El informe se hizo hace 48 minutos, a las 06:00 UTC
Pronóstico válido del 30 a las 06 UTC al 31 a las 12 UTC
Viento 6 kt con dirección variable
Visibilidad 10 km o más
Nubes dispersas a una altura de 4500 ft
Cielo nuboso a una altura de 6000 ft

TAF: PAFB 300600Z 3006/3112 VRB06KT 9999 SCT045 BKN060 620603 QNH2987INS TX17/3101Z TN08/3011Z

Observaciones y pronósticos meteorológicos de más de 4000 aeropuertos (mensajes METAR y TAF).

Los puntos amarillos y rojos representan las estaciones disponibles.

Ponga el ratón en el punto deseado para ver el nombre de la estación.

Haga clic para ver las observaciones y los pronósticos meteorológicos.

Para cambiar el mapa : haga clic en los botones verdes con una cruz de color negro para hacer un zoom, en el botón verde con un guión para alejar o en las flechas verdes para mapas adyacentes.


METAR-TAF: